Time;durP1;ratioP1;P1;durP2;ratioP2;P2;SDS_P1;SDS_P2;PMS_P1;PMS_P2;Temp;Humidity;BMP_temperature;BMP_pressure;BME280_temperature;BME280_humidity;BME280_pressure;Samples;Min_cycle;Max_cycle;Signal;HPM_P1;HPM_P2
2023/01/01 00:00:24;;;;;;;39.90;23.15;;;;;;;8.27;100.00;100276.69;5121629;28;20044;-92
2023/01/01 00:02:50;;;;;;;49.53;27.27;;;;;;;8.35;100.00;100282.03;5121601;28;20040;-92
2023/01/01 00:05:16;;;;;;;53.55;28.15;;;;;;;8.26;100.00;100274.03;5123341;28;20047;-94
2023/01/01 00:07:42;;;;;;;63.35;32.17;;;;;;;8.35;100.00;100284.69;5119357;28;20040;-93
2023/01/01 00:13:12;;;;;;;42.88;24.50;;;;;;;8.31;100.00;100278.50;5122445;27;20375;-92
2023/01/01 00:15:38;;;;;;;40.15;22.52;;;;;;;8.32;100.00;100288.22;5119773;28;20442;-91
2023/01/01 00:18:04;;;;;;;39.83;22.75;;;;;;;8.22;100.00;100270.50;5122517;28;20046;-92
2023/01/01 00:20:29;;;;;;;45.05;23.42;;;;;;;8.14;100.00;100257.19;5121065;28;20040;-92
2023/01/01 00:22:55;;;;;;;41.30;23.70;;;;;;;8.19;100.00;100271.34;5123019;28;20135;-92
2023/01/01 00:25:22;;;;;;;44.03;23.25;;;;;;;8.12;100.00;100266.00;5121930;28;20067;-93
2023/01/01 00:27:47;;;;;;;47.13;25.27;;;;;;;7.97;100.00;100248.22;5123485;28;20122;-92
2023/01/01 00:30:15;;;;;;;44.08;24.00;;;;;;;7.92;100.00;100236.72;5119292;27;20146;-92
2023/01/01 00:32:41;;;;;;;45.95;24.42;;;;;;;7.92;100.00;100240.25;5123323;28;20119;-92
2023/01/01 00:35:07;;;;;;;48.95;25.40;;;;;;;8.00;100.00;100259.75;5121336;28;20126;-92
2023/01/01 00:37:33;;;;;;;59.78;30.42;;;;;;;7.93;100.00;100252.59;5122278;28;20044;-92
2023/01/01 00:39:59;;;;;;;54.58;27.15;;;;;;;7.94;100.00;100257.03;5115734;28;20046;-92
2023/01/01 00:42:25;;;;;;;44.92;25.73;;;;;;;7.92;100.00;100248.19;5124565;28;20043;-93
2023/01/01 00:44:51;;;;;;;48.42;25.98;;;;;;;7.81;100.00;100240.19;5118056;28;20093;-92
2023/01/01 00:47:18;;;;;;;47.05;25.75;;;;;;;7.83;100.00;100248.13;5117660;28;20085;-92
2023/01/01 00:49:44;;;;;;;47.83;23.67;;;;;;;7.81;100.00;100253.41;5122266;28;20047;-92
2023/01/01 00:52:10;;;;;;;52.80;25.52;;;;;;;7.79;100.00;100259.56;5117605;28;20038;-91
2023/01/01 00:54:36;;;;;;;54.05;28.55;;;;;;;7.66;100.00;100234.75;5117279;28;20062;-92
2023/01/01 00:57:02;;;;;;;69.22;30.70;;;;;;;7.79;100.00;100267.53;5122908;28;20492;-92
2023/01/01 00:59:28;;;;;;;60.55;30.98;;;;;;;7.71;100.00;100250.69;5119175;28;20048;-92
2023/01/01 01:01:54;;;;;;;70.20;33.85;;;;;;;7.75;100.00;100255.13;5121295;28;20078;-91
2023/01/01 01:04:21;;;;;;;63.03;32.90;;;;;;;7.63;100.00;100247.94;5118822;28;20056;-91
2023/01/01 01:06:47;;;;;;;52.28;26.33;;;;;;;7.82;100.00;100275.47;5122377;28;20039;-92
2023/01/01 01:09:12;;;;;;;53.40;25.45;;;;;;;7.66;100.00;100260.34;5119054;28;20497;-91
2023/01/01 01:11:38;;;;;;;48.50;24.17;;;;;;;7.74;100.00;100277.16;5119591;28;20043;-92
2023/01/01 01:14:04;;;;;;;51.88;25.75;;;;;;;7.72;100.00;100278.91;5116884;28;20130;-91
2023/01/01 01:16:32;;;;;;;50.20;26.05;;;;;;;7.75;100.00;100297.50;5117156;28;20130;-91
2023/01/01 01:18:59;;;;;;;48.60;25.42;;;;;;;7.74;100.00;100301.00;5120520;28;20035;-92
2023/01/01 01:21:28;;;;;;;51.42;25.60;;;;;;;7.66;100.00;100287.72;5118562;28;20035;-92
2023/01/01 01:24:01;;;;;;;88.85;39.33;;;;;;;7.59;100.00;100292.06;5112104;28;20052;-92
2023/01/01 01:26:29;;;;;;;88.40;39.70;;;;;;;7.60;100.00;100304.41;5106474;28;20039;-93
2023/01/01 01:28:56;;;;;;;86.05;40.25;;;;;;;7.53;100.00;100297.28;5109924;28;20070;-93
2023/01/01 01:31:26;;;;;;;78.65;36.00;;;;;;;7.41;100.00;100290.09;5106654;28;20040;-91
2023/01/01 01:33:52;;;;;;;97.38;43.58;;;;;;;7.31;100.00;100287.38;5108052;28;20036;-92
2023/01/01 01:36:17;;;;;;;90.13;42.28;;;;;;;7.16;100.00;100267.81;5108508;28;20501;-92
2023/01/01 01:38:46;;;;;;;85.43;41.58;;;;;;;7.15;100.00;100265.13;5105845;28;20094;-92
2023/01/01 01:41:13;;;;;;;60.47;30.23;;;;;;;7.33;100.00;100298.84;5105749;28;20482;-92
2023/01/01 01:43:50;;;;;;;78.97;39.13;;;;;;;7.31;100.00;100306.78;5109461;28;20109;-92
2023/01/01 01:46:20;;;;;;;84.15;41.35;;;;;;;7.12;100.00;100276.56;5104420;28;20454;-90
2023/01/01 01:48:48;;;;;;;94.43;43.72;;;;;;;7.20;100.00;100301.38;5102068;28;20029;-91
2023/01/01 01:51:17;;;;;;;100.80;44.88;;;;;;;7.06;100.00;100287.09;5107038;28;20081;-89
2023/01/01 01:53:48;;;;;;;92.45;44.63;;;;;;;7.16;100.00;100306.59;5100990;28;20039;-90
2023/01/01 01:56:18;;;;;;;99.53;49.17;;;;;;;7.03;100.00;100283.53;5100609;28;20319;-91
2023/01/01 01:58:44;;;;;;;99.85;47.30;;;;;;;7.09;100.00;100304.75;5109075;28;20126;-91
2023/01/01 02:01:10;;;;;;;133.18;52.15;;;;;;;7.03;100.00;100295.00;5098290;28;20131;-90
2023/01/01 02:03:42;;;;;;;342.52;63.72;;;;;;;6.99;100.00;100287.88;5105016;28;20043;-90
2023/01/01 02:06:08;;;;;;;164.13;57.45;;;;;;;6.76;100.00;100263.81;5108272;28;20036;-89
2023/01/01 02:08:34;;;;;;;135.73;53.10;;;;;;;6.83;100.00;100286.84;5104034;28;20040;-90
2023/01/01 02:11:02;;;;;;;108.70;49.88;;;;;;;6.85;100.00;100310.63;5102434;28;20493;-91
2023/01/01 02:13:28;;;;;;;111.68;50.20;;;;;;;6.76;100.00;100312.28;5102223;28;20039;-90
2023/01/01 02:16:00;;;;;;;112.53;47.45;;;;;;;6.60;100.00;100285.66;5099636;28;20039;-91
2023/01/01 02:18:35;;;;;;;110.88;48.92;;;;;;;6.67;100.00;100301.59;5102699;28;20067;-89
2023/01/01 02:21:05;;;;;;;115.30;46.60;;;;;;;6.57;100.00;100281.19;5106212;28;20043;-89
2023/01/01 02:24:06;;;;;;;97.22;47.10;;;;;;;6.47;100.00;100266.09;5107343;28;20043;-90
2023/01/01 02:26:44;;;;;;;136.32;50.88;;;;;;;6.58;100.00;100285.63;5101750;28;20087;-90
2023/01/01 02:29:20;;;;;;;135.82;50.38;;;;;;;6.60;100.00;100293.56;5127317;27;20118;-91
2023/01/01 02:31:49;;;;;;;122.53;50.13;;;;;;;6.60;100.00;100291.81;5125110;27;20515;-90
2023/01/01 02:34:20;;;;;;;154.93;52.72;;;;;;;6.57;100.00;100290.03;5101304;28;20051;-90
2023/01/01 02:36:50;;;;;;;177.25;53.97;;;;;;;6.48;100.00;100266.09;5101894;28;20065;-91
2023/01/01 02:39:19;;;;;;;179.05;57.00;;;;;;;6.51;100.00;100267.91;5103763;28;20459;-90
2023/01/01 02:41:49;;;;;;;155.80;54.10;;;;;;;6.75;100.00;100289.38;5103486;28;20488;-90
2023/01/01 02:44:18;;;;;;;222.38;63.72;;;;;;;6.64;100.00;100255.75;5100101;28;20040;-91
2023/01/01 02:46:44;;;;;;;274.83;63.92;;;;;;;6.70;100.00;100255.78;5099263;28;20071;-91
2023/01/01 02:49:10;;;;;;;232.70;65.97;;;;;;;6.67;100.00;100250.47;5103207;28;20116;-90
2023/01/01 02:51:47;;;;;;;165.73;65.22;;;;;;;6.74;100.00;100262.91;5100693;28;20039;-90
2023/01/01 02:54:24;;;;;;;254.60;67.60;;;;;;;6.85;100.00;100270.97;5102965;28;20036;-90
2023/01/01 02:56:55;;;;;;;308.58;71.38;;;;;;;6.82;100.00;100277.09;5102459;28;20154;-91
2023/01/01 03:02:41;;;;;;;268.45;68.55;;;;;;;6.66;100.00;100275.13;5137328;27;20375;-92
2023/01/01 03:05:13;;;;;;;241.85;68.80;;;;;;;6.61;100.00;100253.91;5133236;27;20054;-91
2023/01/01 03:07:53;;;;;;;285.95;69.82;;;;;;;6.58;100.00;100251.25;5134979;27;20039;-91
2023/01/01 03:10:23;;;;;;;239.98;64.57;;;;;;;6.56;100.00;100247.69;5132125;27;20039;-91
2023/01/01 03:12:55;;;;;;;189.07;61.47;;;;;;;6.63;100.00;100253.94;5131288;27;20489;-92
2023/01/01 03:15:27;;;;;;;254.27;64.05;;;;;;;6.65;100.00;100246.94;5130615;27;20836;-90
2023/01/01 03:18:01;;;;;;;159.77;57.55;;;;;;;6.58;100.00;100259.19;5134478;27;20817;-91
2023/01/01 03:20:32;;;;;;;144.35;55.40;;;;;;;6.38;100.00;100251.88;5142225;27;20043;-90
2023/01/01 03:23:02;;;;;;;96.15;49.55;;;;;;;6.33;100.00;100264.16;5133291;27;20070;-91
2023/01/01 03:25:32;;;;;;;90.50;45.58;;;;;;;6.22;100.00;100262.19;5133875;27;20035;-90
2023/01/01 03:28:02;;;;;;;90.25;44.38;;;;;;;6.22;100.00;100264.84;5137166;27;20050;-91
2023/01/01 03:30:31;;;;;;;80.60;43.33;;;;;;;6.16;100.00;100260.38;5132648;27;20050;-92
2023/01/01 03:33:02;;;;;;;71.57;35.95;;;;;;;6.16;100.00;100265.66;5134918;27;20039;-91
2023/01/01 03:35:36;;;;;;;70.45;36.78;;;;;;;6.11;100.00;100268.19;5134394;27;20079;-91
2023/01/01 03:38:07;;;;;;;66.97;33.00;;;;;;;6.10;100.00;100263.81;5136134;27;20039;-91
2023/01/01 03:40:37;;;;;;;56.25;30.13;;;;;;;6.12;100.00;100269.13;5134465;27;20030;-91
2023/01/01 03:43:08;;;;;;;53.75;28.77;;;;;;;6.07;100.00;100263.78;5133491;27;20038;-91
2023/01/01 03:45:38;;;;;;;55.67;28.75;;;;;;;6.13;100.00;100276.16;5132463;27;20092;-91
2023/01/01 03:48:06;;;;;;;56.63;28.60;;;;;;;6.01;100.00;100266.31;5131766;27;20789;-90
2023/01/01 03:50:44;;;;;;;53.63;29.38;;;;;;;5.95;100.00;100260.94;5134052;27;20096;-91
2023/01/01 03:53:21;;;;;;;54.70;29.85;;;;;;;5.95;100.00;100261.81;5131323;27;20031;-91
2023/01/01 03:55:52;;;;;;;53.17;28.05;;;;;;;6.07;100.00;100270.78;5136008;27;20035;-91
2023/01/01 03:58:22;;;;;;;55.88;28.95;;;;;;;5.95;100.00;100248.59;5133401;27;20047;-91
2023/01/01 04:00:53;;;;;;;52.75;27.48;;;;;;;6.12;100.00;100274.41;5131969;27;20091;-91
2023/01/01 04:03:24;;;;;;;54.20;29.50;;;;;;;6.13;100.00;100271.75;5130898;27;20042;-90
2023/01/01 04:05:50;;;;;;;54.78;28.65;;;;;;;6.09;100.00;100274.34;5133697;27;20039;-91
2023/01/01 04:08:16;;;;;;;60.17;30.23;;;;;;;5.99;100.00;100267.16;5134013;27;20039;-91
2023/01/01 04:10:46;;;;;;;69.03;35.22;;;;;;;6.00;100.00;100279.47;5130514;27;20073;-91
2023/01/01 04:13:12;;;;;;;72.47;34.88;;;;;;;5.94;100.00;100280.22;5121091;27;20032;-91
2023/01/01 04:15:38;;;;;;;64.70;33.40;;;;;;;5.79;100.00;100248.31;5116569;27;20039;-91
2023/01/01 04:18:04;;;;;;;67.93;34.20;;;;;;;5.77;100.00;100245.66;5119579;27;20126;-91
2023/01/01 04:20:31;;;;;;;73.78;37.85;;;;;;;5.78;100.00;100262.38;5120815;27;20061;-91
2023/01/01 04:22:58;;;;;;;66.05;33.90;;;;;;;5.90;100.00;100274.03;5116902;27;20530;-91
2023/01/01 04:25:24;;;;;;;68.30;34.85;;;;;;;5.87;100.00;100281.88;5121455;27;20054;-92
2023/01/01 04:27:50;;;;;;;72.13;35.72;;;;;;;5.77;100.00;100266.78;5120710;27;20063;-92
2023/01/01 04:30:16;;;;;;;87.15;40.88;;;;;;;5.87;100.00;100283.63;5120698;27;20086;-91
2023/01/01 04:32:42;;;;;;;121.43;42.47;;;;;;;5.92;100.00;100288.16;5119996;27;20055;-91
2023/01/01 04:35:11;;;;;;;174.52;45.90;;;;;;;5.97;100.00;100286.50;5123235;27;20063;-90
2023/01/01 04:37:39;;;;;;;126.55;43.55;;;;;;;6.06;100.00;100306.00;5118283;27;20039;-91
2023/01/01 04:40:07;;;;;;;154.00;44.88;;;;;;;6.06;100.00;100306.88;5122713;27;20555;-91
2023/01/01 04:42:33;;;;;;;124.90;43.63;;;;;;;5.93;100.00;100287.25;5116031;27;20496;-91
2023/01/01 04:44:59;;;;;;;98.03;40.75;;;;;;;5.95;100.00;100295.25;5123403;27;20106;-91
2023/01/01 04:47:26;;;;;;;111.35;43.42;;;;;;;5.93;100.00;100302.22;5119724;27;20127;-90
2023/01/01 04:49:52;;;;;;;94.60;40.78;;;;;;;5.85;100.00;100304.72;5120722;27;20093;-92
2023/01/01 04:52:18;;;;;;;139.98;43.83;;;;;;;5.80;100.00;100301.13;5122546;27;20043;-91
2023/01/01 04:54:45;;;;;;;98.38;42.03;;;;;;;5.86;100.00;100306.53;5114471;27;20063;-91
2023/01/01 04:57:11;;;;;;;98.07;42.30;;;;;;;5.97;100.00;100312.00;5122421;27;20035;-92
2023/01/01 04:59:37;;;;;;;130.60;42.55;;;;;;;5.96;100.00;100304.94;5121926;27;20064;-92
2023/01/01 05:02:03;;;;;;;126.00;44.28;;;;;;;5.89;100.00;100290.72;5116001;27;20131;-92
2023/01/01 05:04:29;;;;;;;130.82;44.67;;;;;;;6.01;100.00;100303.28;5121357;27;20040;-92
2023/01/01 05:06:54;;;;;;;77.40;38.47;;;;;;;6.16;100.00;100318.47;5115193;27;20369;-90
2023/01/01 05:09:20;;;;;;;78.43;34.85;;;;;;;6.09;100.00;100306.03;5122461;27;20580;-91
2023/01/01 05:11:48;;;;;;;108.03;37.70;;;;;;;6.13;100.00;100321.06;5119088;27;20062;-91
2023/01/01 05:14:13;;;;;;;83.15;37.13;;;;;;;6.22;100.00;100328.25;5118384;27;20393;-91
2023/01/01 05:16:40;;;;;;;83.50;38.65;;;;;;;6.10;100.00;100299.91;5122159;27;20043;-91
2023/01/01 05:19:07;;;;;;;84.18;37.35;;;;;;;6.17;100.00;100304.41;5120102;27;20035;-91
2023/01/01 05:21:35;;;;;;;163.02;39.92;;;;;;;6.19;100.00;100317.63;5118565;27;20032;-90
2023/01/01 05:24:03;;;;;;;158.55;42.40;;;;;;;6.09;100.00;100312.19;5117981;27;20050;-91
2023/01/01 05:26:32;;;;;;;155.52;39.75;;;;;;;6.06;100.00;100300.72;5114234;27;20104;-91
2023/01/01 05:29:00;;;;;;;164.13;40.20;;;;;;;6.12;100.00;100298.16;5123366;27;20051;-91
2023/01/01 05:31:28;;;;;;;181.93;40.30;;;;;;;6.20;100.00;100317.63;5118405;27;20476;-93
2023/01/01 05:33:56;;;;;;;159.27;37.27;;;;;;;6.21;100.00;100315.91;5119269;27;20082;-91
2023/01/01 05:36:23;;;;;;;194.25;37.25;;;;;;;6.20;100.00;100303.56;5123105;27;20044;-93
2023/01/01 05:38:50;;;;;;;248.65;36.22;;;;;;;6.22;100.00;100310.63;5122431;27;20431;-90
2023/01/01 05:41:17;;;;;;;152.18;35.03;;;;;;;6.26;100.00;100314.22;5122244;27;20066;-92
2023/01/01 05:43:43;;;;;;;202.73;36.63;;;;;;;6.34;100.00;100329.31;5117265;27;20039;-90
2023/01/01 05:46:12;;;;;;;149.85;35.58;;;;;;;6.31;100.00;100318.72;5120359;27;20099;-91
2023/01/01 05:48:38;;;;;;;132.85;33.65;;;;;;;6.41;100.00;100326.78;5119445;27;20047;-91
2023/01/01 05:51:06;;;;;;;136.02;35.70;;;;;;;6.37;100.00;100325.81;5119886;27;20038;-92
2023/01/01 05:53:33;;;;;;;165.83;34.23;;;;;;;6.45;100.00;100333.88;5116058;27;20150;-91
2023/01/01 05:55:59;;;;;;;150.07;34.90;;;;;;;6.43;100.00;100325.91;5119451;27;20118;-91
2023/01/01 05:58:26;;;;;;;109.90;34.55;;;;;;;6.34;100.00;100321.38;5116798;27;20549;-92
2023/01/01 06:00:52;;;;;;;153.13;34.22;;;;;;;6.42;100.00;100325.88;5117006;27;20042;-92
2023/01/01 06:03:20;;;;;;;140.98;34.58;;;;;;;6.25;100.00;100302.78;5123502;27;20043;-91
2023/01/01 06:05:46;;;;;;;124.70;33.00;;;;;;;6.23;100.00;100299.22;5118805;27;20039;-92
2023/01/01 06:08:12;;;;;;;79.45;31.52;;;;;;;6.34;100.00;100318.75;5120408;27;20038;-92
2023/01/01 06:10:38;;;;;;;69.00;31.58;;;;;;;6.30;100.00;100294.91;5116981;27;20151;-93
2023/01/01 06:13:04;;;;;;;144.57;33.20;;;;;;;6.34;100.00;100307.31;5115323;27;20048;-92
2023/01/01 06:15:30;;;;;;;142.48;33.03;;;;;;;6.34;100.00;100312.59;5113693;27;20126;-91
2023/01/01 06:17:57;;;;;;;99.97;32.97;;;;;;;6.17;100.00;100272.69;5116513;27;20127;-91
2023/01/01 06:20:24;;;;;;;143.35;34.45;;;;;;;6.31;100.00;100304.59;5119325;27;20035;-91
2023/01/01 06:22:50;;;;;;;117.88;33.45;;;;;;;6.29;100.00;100303.69;5118174;27;20075;-90
2023/01/01 06:25:16;;;;;;;128.20;33.75;;;;;;;6.37;100.00;100313.50;5122510;27;20063;-91
2023/01/01 06:27:42;;;;;;;155.38;34.28;;;;;;;6.23;100.00;100269.28;5118784;27;20466;-92
2023/01/01 06:30:08;;;;;;;139.75;33.70;;;;;;;6.45;100.00;100313.63;5117219;27;20058;-91
2023/01/01 06:32:34;;;;;;;118.85;32.53;;;;;;;6.51;100.00;100313.72;5115953;27;20050;-92
2023/01/01 06:35:00;;;;;;;141.13;33.35;;;;;;;6.34;100.00;100297.63;5116205;27;20127;-92
2023/01/01 06:37:28;;;;;;;125.78;33.08;;;;;;;6.46;100.00;100333.91;5123361;27;20043;-91
2023/01/01 06:39:54;;;;;;;139.70;32.13;;;;;;;6.34;100.00;100313.47;5116669;27;20511;-92
2023/01/01 06:42:19;;;;;;;114.50;33.53;;;;;;;6.30;100.00;100297.53;5123257;27;20043;-91
2023/01/01 06:44:45;;;;;;;100.90;32.90;;;;;;;6.56;100.00;100329.63;5113265;27;20041;-91
2023/01/01 06:47:11;;;;;;;162.05;34.58;;;;;;;6.56;100.00;100319.06;5116972;27;20131;-91
2023/01/01 06:49:37;;;;;;;162.10;31.73;;;;;;;6.42;100.00;100289.81;5119095;27;20378;-92
2023/01/01 06:52:03;;;;;;;175.65;31.10;;;;;;;6.49;100.00;100302.22;5121059;27;20038;-90
2023/01/01 06:54:30;;;;;;;142.18;29.33;;;;;;;6.59;100.00;100313.81;5117369;27;20070;-90
2023/01/01 06:56:56;;;;;;;131.00;30.33;;;;;;;6.56;100.00;100287.34;5118853;28;20526;-92
2023/01/01 06:59:21;;;;;;;115.28;29.70;;;;;;;6.52;100.00;100282.88;5118810;28;20134;-92
2023/01/01 07:01:47;;;;;;;133.75;29.95;;;;;;;6.68;100.00;100310.41;5121023;28;20493;-91
2023/01/01 07:04:15;;;;;;;99.88;30.73;;;;;;;6.70;100.00;100296.34;5122185;28;20039;-91
2023/01/01 07:06:41;;;;;;;104.85;32.40;;;;;;;6.85;100.00;100326.50;5120313;28;20469;-91
2023/01/01 07:09:07;;;;;;;94.90;32.85;;;;;;;6.89;100.00;100318.63;5119939;28;20070;-92
2023/01/01 07:11:35;;;;;;;140.65;33.85;;;;;;;6.89;100.00;100312.44;5117962;28;20043;-92
2023/01/01 07:14:01;;;;;;;120.43;33.38;;;;;;;6.94;100.00;100319.59;5120131;28;20031;-91
2023/01/01 07:16:27;;;;;;;120.80;33.47;;;;;;;6.97;100.00;100326.66;5113389;28;20123;-92
2023/01/01 07:18:53;;;;;;;112.18;31.73;;;;;;;7.04;100.00;100332.91;5115913;28;20036;-93
2023/01/01 07:21:25;;;;;;;121.93;32.70;;;;;;;6.94;100.00;100335.44;5119044;28;20570;-92
2023/01/01 07:23:51;;;;;;;117.78;30.80;;;;;;;6.94;100.00;100323.94;5123486;28;20120;-91
2023/01/01 07:26:16;;;;;;;101.90;29.63;;;;;;;6.90;100.00;100330.97;5124092;28;20071;-90
2023/01/01 07:28:44;;;;;;;85.07;29.83;;;;;;;6.87;100.00;100332.69;5119266;28;20039;-90
2023/01/01 07:31:09;;;;;;;111.43;29.15;;;;;;;6.93;100.00;100336.28;5118186;28;20032;-91
2023/01/01 07:33:35;;;;;;;80.35;28.83;;;;;;;6.86;100.00;100325.63;5117147;28;20135;-93
2023/01/01 07:36:01;;;;;;;125.57;29.40;;;;;;;6.96;100.00;100331.06;5118462;28;20035;-90
2023/01/01 07:38:27;;;;;;;86.40;28.90;;;;;;;7.02;100.00;100335.53;5118504;28;20047;-90
2023/01/01 07:40:53;;;;;;;94.18;28.73;;;;;;;7.05;100.00;100339.97;5116653;28;20035;-91
2023/01/01 07:43:19;;;;;;;78.43;27.80;;;;;;;7.00;100.00;100321.38;5119328;28;20135;-92
2023/01/01 07:45:46;;;;;;;73.90;28.15;;;;;;;7.15;100.00;100345.38;5112342;28;20110;-92
2023/01/01 07:48:14;;;;;;;81.65;28.80;;;;;;;7.19;100.00;100351.59;5116842;27;20039;-91
2023/01/01 07:50:41;;;;;;;80.20;28.80;;;;;;;7.07;100.00;100317.97;5121267;27;20046;-92
2023/01/01 07:53:06;;;;;;;94.13;32.20;;;;;;;7.26;100.00;100334.03;5119635;27;20392;-92
2023/01/01 07:55:33;;;;;;;79.45;30.50;;;;;;;7.12;100.00;100323.31;5118993;27;20050;-92
2023/01/01 07:57:58;;;;;;;71.93;21.48;;;;;;;7.17;100.00;100341.00;5126450;27;20438;-93
2023/01/01 08:00:25;;;;;;;50.47;21.60;;;;;;;7.11;100.00;100319.78;5121665;27;20059;-91
2023/01/01 08:02:52;;;;;;;43.17;20.02;;;;;;;7.36;100.00;100341.22;5124348;27;20061;-91
2023/01/01 08:05:18;;;;;;;69.10;21.17;;;;;;;7.25;100.00;100305.81;5118685;27;20074;-91
2023/01/01 08:07:48;;;;;;;38.67;18.90;;;;;;;7.44;100.00;100326.31;5123268;27;20586;-93
2023/01/01 08:10:14;;;;;;;43.30;20.67;;;;;;;7.61;100.00;100342.34;5118466;27;20046;-91
2023/01/01 08:12:40;;;;;;;42.35;20.55;;;;;;;7.55;100.00;100348.50;5118726;27;20035;-92
2023/01/01 08:15:07;;;;;;;67.40;26.27;;;;;;;7.36;100.00;100335.94;5120021;27;20407;-91
2023/01/01 08:17:33;;;;;;;62.15;26.38;;;;;;;7.20;100.00;100308.44;5124688;27;20438;-91
2023/01/01 08:20:00;;;;;;;71.40;27.15;;;;;;;7.27;100.00;100301.44;5121640;27;20087;-91
2023/01/01 08:22:26;;;;;;;51.05;23.83;;;;;;;7.50;100.00;100318.41;5123652;27;20523;-90
2023/01/01 08:24:52;;;;;;;82.32;26.90;;;;;;;7.62;100.00;100320.31;5124618;27;20039;-91
2023/01/01 08:27:18;;;;;;;55.22;23.90;;;;;;;7.73;100.00;100337.19;5122273;27;20039;-92
2023/01/01 08:29:44;;;;;;;57.50;24.08;;;;;;;7.57;100.00;100324.69;5118359;27;20043;-92
2023/01/01 08:32:10;;;;;;;68.70;29.88;;;;;;;7.65;100.00;100351.22;5117884;27;20492;-92
2023/01/01 08:34:36;;;;;;;51.50;25.25;;;;;;;7.55;100.00;100321.16;5120334;27;20492;-91
2023/01/01 08:37:04;;;;;;;53.85;25.92;;;;;;;7.86;100.00;100332.91;5119448;27;20089;-93
2023/01/01 08:39:30;;;;;;;49.17;25.10;;;;;;;8.00;100.00;100338.31;5118964;27;20489;-93
2023/01/01 08:41:56;;;;;;;53.83;25.67;;;;;;;8.05;100.00;100326.00;5116606;27;20043;-91
2023/01/01 08:44:22;;;;;;;46.85;26.05;;;;;;;8.28;100.00;100349.13;5121093;27;20043;-92
2023/01/01 08:46:48;;;;;;;47.85;25.52;;;;;;;8.24;100.00;100327.03;5120236;27;20084;-92
2023/01/01 08:49:13;;;;;;;48.42;27.02;;;;;;;8.27;100.00;100324.41;5122742;27;20015;-91
2023/01/01 08:51:39;;;;;;;51.65;27.40;;;;;;;8.52;100.00;100345.81;5124103;27;20502;-92
2023/01/01 08:54:07;;;;;;;57.47;28.20;;;;;;;8.53;100.00;100337.88;5118769;27;20100;-92
2023/01/01 08:56:33;;;;;;;52.17;25.35;;;;;;;8.44;100.00;100316.59;5119163;27;20048;-91
2023/01/01 08:58:59;;;;;;;51.25;24.85;;;;;;;8.53;100.00;100353.78;5127151;27;20065;-93
2023/01/01 09:01:26;;;;;;;57.10;25.35;;;;;;;8.52;100.00;100361.72;5119672;27;20051;-92
2023/01/01 09:03:52;;;;;;;48.38;24.95;;;;;;;8.46;100.00;100336.06;5124071;27;20063;-92
2023/01/01 09:06:18;;;;;;;74.15;26.25;;;;;;;8.48;100.00;100331.66;5122963;27;20043;-91
2023/01/01 09:08:44;;;;;;;78.95;25.77;;;;;;;8.34;100.00;100336.81;5118360;27;20764;-92
2023/01/01 09:11:21;;;;;;;55.90;25.60;;;;;;;8.39;100.00;100334.19;5120722;27;20036;-92
2023/01/01 09:13:46;;;;;;;50.35;24.77;;;;;;;8.57;100.00;100346.75;5119011;27;20035;-90
2023/01/01 09:16:12;;;;;;;45.30;23.13;;;;;;;8.61;100.00;100344.13;5113299;27;20036;-91
2023/01/01 09:18:38;;;;;;;100.15;25.42;;;;;;;8.81;100.00;100360.13;5122917;27;20122;-91
2023/01/01 09:21:05;;;;;;;115.82;25.45;;;;;;;8.77;100.00;100342.44;5123679;27;20497;-91
2023/01/01 09:23:31;;;;;;;56.08;24.52;;;;;;;8.87;100.00;100351.34;5131475;27;20031;-91
2023/01/01 09:26:01;;;;;;;49.63;24.08;;;;;;;8.87;100.00;100331.84;5121399;27;20040;-91
2023/01/01 09:28:31;;;;;;;69.00;25.08;;;;;;;8.87;100.00;100330.13;5122638;27;20022;-91
2023/01/01 09:30:57;;;;;;;70.78;24.10;;;;;;;8.91;100.00;100347.78;5119959;27;20092;-93
2023/01/01 09:33:23;;;;;;;95.50;25.48;;;;;;;8.97;100.00;100355.78;5126759;27;20035;-92
2023/01/01 09:35:49;;;;;;;81.35;25.63;;;;;;;8.83;100.00;100346.88;5122393;27;20039;-92
2023/01/01 09:38:15;;;;;;;54.58;24.88;;;;;;;8.82;100.00;100335.38;5122077;27;20071;-92
2023/01/01 09:40:54;;;;;;;52.92;24.40;;;;;;;9.03;100.00;100360.25;5122154;27;20031;-92
2023/01/01 09:43:24;;;;;;;;;;;;;;;9.14;100.00;100362.94;5121396;27;20119;-91
2023/01/01 09:45:56;;;;;;;45.47;23.08;;;;;;;9.12;100.00;100332.88;5118845;27;20494;-91
2023/01/01 09:48:24;;;;;;;50.40;24.85;;;;;;;9.23;100.00;100328.47;5118670;27;20122;-92
2023/01/01 09:50:50;;;;;;;70.85;26.10;;;;;;;9.28;100.00;100324.06;5122299;27;20035;-91
2023/01/01 09:53:21;;;;;;;58.70;27.70;;;;;;;9.23;100.00;100316.09;5123279;27;20221;-91
2023/01/01 09:55:52;;;;;;;67.60;24.88;;;;;;;9.40;100.00;100345.34;5121989;27;20036;-91
2023/01/01 09:58:22;;;;;;;49.33;24.75;;;;;;;9.37;100.00;100328.53;5124182;27;20054;-91
2023/01/01 10:00:53;;;;;;;50.50;25.08;;;;;;;9.36;100.00;100308.16;5118755;27;20055;-92
2023/01/01 10:03:36;;;;;;;116.53;27.92;;;;;;;9.45;100.00;100340.03;5119256;27;20050;-90
2023/01/01 10:06:14;;;;;;;153.05;31.33;;;;;;;9.46;100.00;100348.03;5119910;27;20043;-91
2023/01/01 10:08:55;;;;;;;122.78;31.80;;;;;;;9.23;100.00;100352.38;5117958;27;20100;-91
2023/01/01 10:11:27;;;;;;;80.22;30.63;;;;;;;9.32;100.00;100347.06;5120832;27;20177;-91
2023/01/01 10:13:57;;;;;;;129.50;30.25;;;;;;;9.18;100.00;100315.19;5118871;27;20540;-91
2023/01/01 10:16:30;;;;;;;81.60;30.52;;;;;;;9.31;100.00;100308.16;5117750;27;20126;-91
2023/01/01 10:19:00;;;;;;;60.78;29.73;;;;;;;9.52;100.00;100309.97;5116483;27;20035;-92
2023/01/01 10:21:31;;;;;;;73.57;29.90;;;;;;;9.62;100.00;100300.25;5118565;27;20084;-90
2023/01/01 10:24:02;;;;;;;61.00;28.80;;;;;;;9.81;100.00;100317.09;5114528;28;20047;-91
2023/01/01 10:26:30;;;;;;;69.35;30.13;;;;;;;9.90;100.00;100322.41;5119479;27;20028;-91
2023/01/01 10:29:00;;;;;;;68.40;30.73;;;;;;;9.93;100.00;100305.56;5116689;27;20051;-91
2023/01/01 10:31:32;;;;;;;75.93;32.40;;;;;;;9.91;100.00;100283.44;5117150;27;20050;-91
2023/01/01 10:34:11;;;;;;;77.97;34.33;;;;;;;10.08;100.00;100287.88;5120995;27;20066;-90
2023/01/01 10:36:37;;;;;;;79.65;33.30;;;;;;;10.20;100.00;100289.63;5121893;27;20103;-91
2023/01/01 10:39:03;;;;;;;73.35;34.10;;;;;;;10.26;100.00;100288.75;5119689;27;20431;-91
2023/01/01 10:41:30;;;;;;;84.55;36.08;;;;;;;10.31;100.00;100272.81;5119749;27;20031;-90
2023/01/01 10:43:56;;;;;;;96.07;37.88;;;;;;;10.22;100.00;100277.22;5127805;27;20547;-91
2023/01/01 10:46:25;;;;;;;102.10;38.70;;;;;;;9.88;100.00;100257.75;5118906;27;20069;-91
2023/01/01 10:49:09;;;;;;;84.03;37.50;;;;;;;9.91;100.00;100281.69;5120164;27;20036;-90
2023/01/01 10:51:40;;;;;;;93.40;37.53;;;;;;;10.00;100.00;100267.50;5123573;27;20480;-90
2023/01/01 10:54:25;;;;;;;83.05;37.53;;;;;;;10.17;100.00;100279.00;5118832;28;20456;-90
2023/01/01 10:56:51;;;;;;;98.63;38.75;;;;;;;10.17;100.00;100264.81;5119661;27;20089;-91
2023/01/01 10:59:37;;;;;;;90.75;39.40;;;;;;;10.30;100.00;100284.31;5122409;27;20043;-90
2023/01/01 11:02:19;;;;;;;87.45;38.90;;;;;;;10.30;100.00;100268.38;5119267;28;20043;-90
2023/01/01 11:04:47;;;;;;;83.60;35.95;;;;;;;10.36;100.00;100273.69;5119322;28;20067;-91
2023/01/01 11:07:27;;;;;;;98.80;37.80;;;;;;;10.10;100.00;100273.69;5117921;28;20071;-91
2023/01/01 11:10:00;;;;;;;104.60;37.88;;;;;;;9.76;100.00;100274.59;5118090;28;20063;-91
2023/01/01 11:12:30;;;;;;;86.38;37.15;;;;;;;9.67;100.00;100250.66;5115037;28;20039;-91
2023/01/01 11:14:58;;;;;;;87.72;37.10;;;;;;;9.56;100.00;100228.53;5122824;28;20035;-90
2023/01/01 11:17:26;;;;;;;99.90;38.85;;;;;;;9.59;100.00;100233.88;5118925;27;20040;-91